sensor_id;sensor_type;location;lat;lon;timestamp;P1;durP1;ratioP1;P2;durP2;ratioP2
33740;SDS011;20065;48.380;10.892;2023-04-23T00:00:50;7.33;;;3.50;;
33740;SDS011;20065;48.380;10.892;2023-04-23T00:03:39;7.47;;;4.10;;
33740;SDS011;20065;48.380;10.892;2023-04-23T00:06:28;8.10;;;4.60;;
33740;SDS011;20065;48.380;10.892;2023-04-23T00:09:15;7.50;;;4.60;;
33740;SDS011;20065;48.380;10.892;2023-04-23T00:12:01;10.30;;;4.50;;
33740;SDS011;20065;48.380;10.892;2023-04-23T00:14:48;7.30;;;4.53;;
33740;SDS011;20065;48.380;10.892;2023-04-23T00:17:34;7.50;;;3.90;;
33740;SDS011;20065;48.380;10.892;2023-04-23T00:20:21;10.50;;;4.50;;
33740;SDS011;20065;48.380;10.892;2023-04-23T00:23:07;8.60;;;4.00;;
33740;SDS011;20065;48.380;10.892;2023-04-23T00:25:53;8.40;;;4.07;;
33740;SDS011;20065;48.380;10.892;2023-04-23T00:28:40;8.63;;;4.30;;
33740;SDS011;20065;48.380;10.892;2023-04-23T00:31:26;7.43;;;4.80;;
33740;SDS011;20065;48.380;10.892;2023-04-23T00:34:12;9.00;;;4.33;;
33740;SDS011;20065;48.380;10.892;2023-04-23T00:36:58;7.17;;;4.40;;
33740;SDS011;20065;48.380;10.892;2023-04-23T00:39:45;7.33;;;4.60;;
33740;SDS011;20065;48.380;10.892;2023-04-23T00:42:31;5.57;;;3.50;;
33740;SDS011;20065;48.380;10.892;2023-04-23T00:45:18;7.73;;;3.90;;
33740;SDS011;20065;48.380;10.892;2023-04-23T00:48:05;6.30;;;3.93;;
33740;SDS011;20065;48.380;10.892;2023-04-23T00:50:59;8.50;;;3.80;;
33740;SDS011;20065;48.380;10.892;2023-04-23T00:53:48;6.77;;;4.50;;
33740;SDS011;20065;48.380;10.892;2023-04-23T00:56:34;7.37;;;4.30;;
33740;SDS011;20065;48.380;10.892;2023-04-23T00:59:21;6.30;;;4.10;;
33740;SDS011;20065;48.380;10.892;2023-04-23T01:02:08;8.10;;;4.23;;
33740;SDS011;20065;48.380;10.892;2023-04-23T01:04:54;8.37;;;3.90;;
33740;SDS011;20065;48.380;10.892;2023-04-23T01:07:41;6.63;;;3.83;;
33740;SDS011;20065;48.380;10.892;2023-04-23T01:10:29;7.40;;;4.80;;
33740;SDS011;20065;48.380;10.892;2023-04-23T01:13:17;8.20;;;4.40;;
33740;SDS011;20065;48.380;10.892;2023-04-23T01:16:03;6.73;;;5.03;;
33740;SDS011;20065;48.380;10.892;2023-04-23T01:18:49;6.53;;;4.23;;
33740;SDS011;20065;48.380;10.892;2023-04-23T01:21:36;8.60;;;4.40;;
33740;SDS011;20065;48.380;10.892;2023-04-23T01:24:26;7.13;;;4.00;;
33740;SDS011;20065;48.380;10.892;2023-04-23T01:27:14;6.97;;;4.70;;
33740;SDS011;20065;48.380;10.892;2023-04-23T01:30:03;6.40;;;4.13;;
33740;SDS011;20065;48.380;10.892;2023-04-23T01:32:50;7.23;;;4.10;;
33740;SDS011;20065;48.380;10.892;2023-04-23T01:35:38;6.63;;;4.43;;
33740;SDS011;20065;48.380;10.892;2023-04-23T01:38:26;7.30;;;3.90;;
33740;SDS011;20065;48.380;10.892;2023-04-23T01:41:15;7.03;;;4.20;;
33740;SDS011;20065;48.380;10.892;2023-04-23T01:44:01;7.70;;;4.67;;
33740;SDS011;20065;48.380;10.892;2023-04-23T01:46:47;7.60;;;4.73;;
33740;SDS011;20065;48.380;10.892;2023-04-23T01:49:34;10.80;;;4.53;;
33740;SDS011;20065;48.380;10.892;2023-04-23T01:52:20;7.10;;;4.73;;
33740;SDS011;20065;48.380;10.892;2023-04-23T01:55:07;8.07;;;4.90;;
33740;SDS011;20065;48.380;10.892;2023-04-23T01:57:57;7.60;;;4.83;;
33740;SDS011;20065;48.380;10.892;2023-04-23T02:00:43;8.17;;;5.07;;
33740;SDS011;20065;48.380;10.892;2023-04-23T02:03:29;7.03;;;4.53;;
33740;SDS011;20065;48.380;10.892;2023-04-23T02:06:18;8.80;;;5.60;;
33740;SDS011;20065;48.380;10.892;2023-04-23T02:09:04;7.30;;;4.50;;
33740;SDS011;20065;48.380;10.892;2023-04-23T02:11:50;6.53;;;4.77;;
33740;SDS011;20065;48.380;10.892;2023-04-23T02:14:36;7.93;;;4.60;;
33740;SDS011;20065;48.380;10.892;2023-04-23T02:17:22;8.63;;;3.83;;
33740;SDS011;20065;48.380;10.892;2023-04-23T02:20:09;6.57;;;5.10;;
33740;SDS011;20065;48.380;10.892;2023-04-23T02:22:55;9.23;;;4.90;;
33740;SDS011;20065;48.380;10.892;2023-04-23T02:25:41;9.17;;;4.83;;
33740;SDS011;20065;48.380;10.892;2023-04-23T02:28:28;6.03;;;4.20;;
33740;SDS011;20065;48.380;10.892;2023-04-23T02:31:14;11.10;;;4.17;;
33740;SDS011;20065;48.380;10.892;2023-04-23T02:34:01;11.40;;;4.13;;
33740;SDS011;20065;48.380;10.892;2023-04-23T02:36:47;7.00;;;4.20;;
33740;SDS011;20065;48.380;10.892;2023-04-23T02:39:33;8.50;;;4.90;;
33740;SDS011;20065;48.380;10.892;2023-04-23T02:42:19;6.93;;;4.60;;
33740;SDS011;20065;48.380;10.892;2023-04-23T02:45:06;5.83;;;3.87;;
33740;SDS011;20065;48.380;10.892;2023-04-23T02:47:52;9.50;;;4.53;;
33740;SDS011;20065;48.380;10.892;2023-04-23T02:50:39;7.37;;;4.33;;
33740;SDS011;20065;48.380;10.892;2023-04-23T02:53:26;6.00;;;3.57;;
33740;SDS011;20065;48.380;10.892;2023-04-23T02:56:12;7.43;;;4.00;;
33740;SDS011;20065;48.380;10.892;2023-04-23T02:58:58;8.10;;;3.83;;
33740;SDS011;20065;48.380;10.892;2023-04-23T03:01:44;7.60;;;3.70;;
33740;SDS011;20065;48.380;10.892;2023-04-23T03:04:31;6.20;;;3.30;;
33740;SDS011;20065;48.380;10.892;2023-04-23T03:07:17;6.73;;;4.20;;
33740;SDS011;20065;48.380;10.892;2023-04-23T03:10:04;7.70;;;3.90;;
33740;SDS011;20065;48.380;10.892;2023-04-23T03:12:51;8.63;;;4.50;;
33740;SDS011;20065;48.380;10.892;2023-04-23T03:15:39;6.80;;;4.33;;
33740;SDS011;20065;48.380;10.892;2023-04-23T03:18:26;8.97;;;3.33;;
33740;SDS011;20065;48.380;10.892;2023-04-23T03:21:14;6.00;;;3.70;;
33740;SDS011;20065;48.380;10.892;2023-04-23T03:24:00;6.47;;;3.70;;
33740;SDS011;20065;48.380;10.892;2023-04-23T03:26:47;5.57;;;3.57;;
33740;SDS011;20065;48.380;10.892;2023-04-23T03:29:34;5.53;;;3.40;;
33740;SDS011;20065;48.380;10.892;2023-04-23T03:32:20;7.00;;;3.57;;
33740;SDS011;20065;48.380;10.892;2023-04-23T03:35:07;7.20;;;4.10;;
33740;SDS011;20065;48.380;10.892;2023-04-23T03:37:55;6.43;;;4.13;;
33740;SDS011;20065;48.380;10.892;2023-04-23T03:40:42;7.07;;;4.53;;
33740;SDS011;20065;48.380;10.892;2023-04-23T03:43:30;7.33;;;4.33;;
33740;SDS011;20065;48.380;10.892;2023-04-23T03:46:23;6.60;;;4.33;;
33740;SDS011;20065;48.380;10.892;2023-04-23T03:49:09;9.90;;;4.33;;
33740;SDS011;20065;48.380;10.892;2023-04-23T03:51:56;6.13;;;4.40;;
33740;SDS011;20065;48.380;10.892;2023-04-23T03:54:42;7.30;;;4.90;;
33740;SDS011;20065;48.380;10.892;2023-04-23T03:57:35;9.00;;;5.10;;
33740;SDS011;20065;48.380;10.892;2023-04-23T04:00:37;7.10;;;4.90;;
33740;SDS011;20065;48.380;10.892;2023-04-23T04:03:23;8.27;;;5.20;;
33740;SDS011;20065;48.380;10.892;2023-04-23T04:06:10;7.40;;;5.03;;
33740;SDS011;20065;48.380;10.892;2023-04-23T04:08:56;11.60;;;6.40;;
33740;SDS011;20065;48.380;10.892;2023-04-23T04:11:42;8.50;;;5.43;;
33740;SDS011;20065;48.380;10.892;2023-04-23T04:14:29;7.30;;;5.40;;
33740;SDS011;20065;48.380;10.892;2023-04-23T04:17:16;12.23;;;5.90;;
33740;SDS011;20065;48.380;10.892;2023-04-23T04:20:02;12.33;;;6.10;;
33740;SDS011;20065;48.380;10.892;2023-04-23T04:22:48;8.83;;;5.60;;
33740;SDS011;20065;48.380;10.892;2023-04-23T04:25:34;8.73;;;5.67;;
33740;SDS011;20065;48.380;10.892;2023-04-23T04:28:24;10.27;;;5.43;;
33740;SDS011;20065;48.380;10.892;2023-04-23T04:31:11;7.50;;;5.63;;
33740;SDS011;20065;48.380;10.892;2023-04-23T04:34:00;15.90;;;6.53;;
33740;SDS011;20065;48.380;10.892;2023-04-23T04:36:46;7.83;;;5.87;;
33740;SDS011;20065;48.380;10.892;2023-04-23T04:39:32;8.83;;;6.27;;
33740;SDS011;20065;48.380;10.892;2023-04-23T04:42:18;9.73;;;6.10;;
33740;SDS011;20065;48.380;10.892;2023-04-23T04:45:05;9.67;;;6.67;;
33740;SDS011;20065;48.380;10.892;2023-04-23T04:47:53;11.97;;;6.47;;
33740;SDS011;20065;48.380;10.892;2023-04-23T04:50:39;10.23;;;6.50;;
33740;SDS011;20065;48.380;10.892;2023-04-23T04:53:25;8.90;;;6.90;;
33740;SDS011;20065;48.380;10.892;2023-04-23T04:56:11;10.00;;;7.27;;
33740;SDS011;20065;48.380;10.892;2023-04-23T04:58:57;11.20;;;8.00;;
33740;SDS011;20065;48.380;10.892;2023-04-23T05:01:44;9.47;;;6.87;;
33740;SDS011;20065;48.380;10.892;2023-04-23T05:04:30;9.57;;;6.20;;
33740;SDS011;20065;48.380;10.892;2023-04-23T05:07:17;14.13;;;7.97;;
33740;SDS011;20065;48.380;10.892;2023-04-23T05:10:03;11.83;;;7.20;;
33740;SDS011;20065;48.380;10.892;2023-04-23T05:12:49;10.10;;;6.70;;
33740;SDS011;20065;48.380;10.892;2023-04-23T05:15:36;9.43;;;6.77;;
33740;SDS011;20065;48.380;10.892;2023-04-23T05:18:22;15.20;;;8.23;;
33740;SDS011;20065;48.380;10.892;2023-04-23T05:21:09;9.40;;;6.67;;
33740;SDS011;20065;48.380;10.892;2023-04-23T05:23:55;13.40;;;7.63;;
33740;SDS011;20065;48.380;10.892;2023-04-23T05:26:42;11.30;;;8.27;;
33740;SDS011;20065;48.380;10.892;2023-04-23T05:29:28;12.80;;;7.70;;
33740;SDS011;20065;48.380;10.892;2023-04-23T05:32:14;11.17;;;6.67;;
33740;SDS011;20065;48.380;10.892;2023-04-23T05:35:02;9.57;;;7.77;;
33740;SDS011;20065;48.380;10.892;2023-04-23T05:37:51;10.83;;;8.00;;
33740;SDS011;20065;48.380;10.892;2023-04-23T05:40:38;9.40;;;6.90;;
33740;SDS011;20065;48.380;10.892;2023-04-23T05:43:24;11.60;;;7.27;;
33740;SDS011;20065;48.380;10.892;2023-04-23T05:46:10;12.30;;;6.80;;
33740;SDS011;20065;48.380;10.892;2023-04-23T05:48:57;12.33;;;6.97;;
33740;SDS011;20065;48.380;10.892;2023-04-23T05:51:43;9.70;;;6.93;;
33740;SDS011;20065;48.380;10.892;2023-04-23T05:54:29;9.10;;;5.80;;
33740;SDS011;20065;48.380;10.892;2023-04-23T05:57:15;10.43;;;6.27;;
33740;SDS011;20065;48.380;10.892;2023-04-23T06:00:01;9.37;;;6.60;;
33740;SDS011;20065;48.380;10.892;2023-04-23T06:02:57;12.93;;;6.80;;
33740;SDS011;20065;48.380;10.892;2023-04-23T06:05:43;10.50;;;6.87;;
33740;SDS011;20065;48.380;10.892;2023-04-23T06:08:30;8.13;;;5.90;;
33740;SDS011;20065;48.380;10.892;2023-04-23T06:11:16;9.83;;;6.30;;
33740;SDS011;20065;48.380;10.892;2023-04-23T06:14:03;9.20;;;5.80;;
33740;SDS011;20065;48.380;10.892;2023-04-23T06:16:50;10.50;;;5.93;;
33740;SDS011;20065;48.380;10.892;2023-04-23T06:19:36;9.00;;;7.07;;
33740;SDS011;20065;48.380;10.892;2023-04-23T06:22:22;9.73;;;6.30;;
33740;SDS011;20065;48.380;10.892;2023-04-23T06:25:08;8.80;;;6.30;;
33740;SDS011;20065;48.380;10.892;2023-04-23T06:27:54;10.10;;;6.77;;
33740;SDS011;20065;48.380;10.892;2023-04-23T06:30:45;8.43;;;5.30;;
33740;SDS011;20065;48.380;10.892;2023-04-23T06:33:31;8.17;;;4.60;;
33740;SDS011;20065;48.380;10.892;2023-04-23T06:36:18;7.40;;;4.30;;
33740;SDS011;20065;48.380;10.892;2023-04-23T06:39:05;8.13;;;4.47;;
33740;SDS011;20065;48.380;10.892;2023-04-23T06:41:51;6.10;;;4.57;;
33740;SDS011;20065;48.380;10.892;2023-04-23T06:44:50;5.17;;;3.03;;
33740;SDS011;20065;48.380;10.892;2023-04-23T06:47:36;6.97;;;3.63;;
33740;SDS011;20065;48.380;10.892;2023-04-23T06:50:22;4.40;;;2.60;;
33740;SDS011;20065;48.380;10.892;2023-04-23T06:53:09;5.30;;;2.93;;
33740;SDS011;20065;48.380;10.892;2023-04-23T06:55:55;3.93;;;2.43;;
33740;SDS011;20065;48.380;10.892;2023-04-23T06:58:41;5.00;;;2.87;;
33740;SDS011;20065;48.380;10.892;2023-04-23T07:01:36;4.53;;;2.80;;
33740;SDS011;20065;48.380;10.892;2023-04-23T07:04:22;4.67;;;2.57;;
33740;SDS011;20065;48.380;10.892;2023-04-23T07:07:11;10.10;;;4.63;;
33740;SDS011;20065;48.380;10.892;2023-04-23T07:09:58;4.10;;;2.90;;
33740;SDS011;20065;48.380;10.892;2023-04-23T07:12:44;6.90;;;3.13;;
33740;SDS011;20065;48.380;10.892;2023-04-23T07:15:30;5.37;;;3.20;;
33740;SDS011;20065;48.380;10.892;2023-04-23T07:18:16;4.67;;;2.90;;
33740;SDS011;20065;48.380;10.892;2023-04-23T07:21:02;6.00;;;3.70;;
33740;SDS011;20065;48.380;10.892;2023-04-23T07:23:49;5.10;;;3.30;;
33740;SDS011;20065;48.380;10.892;2023-04-23T07:26:35;8.37;;;3.50;;
33740;SDS011;20065;48.380;10.892;2023-04-23T07:29:21;6.10;;;3.43;;
33740;SDS011;20065;48.380;10.892;2023-04-23T07:32:08;5.97;;;2.93;;
33740;SDS011;20065;48.380;10.892;2023-04-23T07:34:54;5.80;;;3.10;;
33740;SDS011;20065;48.380;10.892;2023-04-23T07:37:43;6.13;;;3.57;;
33740;SDS011;20065;48.380;10.892;2023-04-23T07:40:29;5.10;;;3.40;;
33740;SDS011;20065;48.380;10.892;2023-04-23T07:43:16;6.00;;;3.63;;
33740;SDS011;20065;48.380;10.892;2023-04-23T07:46:06;5.70;;;3.27;;
33740;SDS011;20065;48.380;10.892;2023-04-23T07:48:52;4.87;;;3.40;;
33740;SDS011;20065;48.380;10.892;2023-04-23T07:51:38;5.37;;;3.17;;
33740;SDS011;20065;48.380;10.892;2023-04-23T07:54:26;4.97;;;3.47;;
33740;SDS011;20065;48.380;10.892;2023-04-23T07:57:12;5.50;;;3.70;;
33740;SDS011;20065;48.380;10.892;2023-04-23T07:59:58;6.10;;;3.90;;
33740;SDS011;20065;48.380;10.892;2023-04-23T08:02:46;6.30;;;3.63;;
33740;SDS011;20065;48.380;10.892;2023-04-23T08:05:36;8.30;;;3.90;;
33740;SDS011;20065;48.380;10.892;2023-04-23T08:08:23;6.27;;;3.63;;
33740;SDS011;20065;48.380;10.892;2023-04-23T08:11:10;6.27;;;4.03;;
33740;SDS011;20065;48.380;10.892;2023-04-23T08:13:56;6.10;;;4.00;;
33740;SDS011;20065;48.380;10.892;2023-04-23T08:16:43;5.70;;;4.00;;
33740;SDS011;20065;48.380;10.892;2023-04-23T08:19:29;8.20;;;4.33;;
33740;SDS011;20065;48.380;10.892;2023-04-23T08:22:18;7.90;;;4.57;;
33740;SDS011;20065;48.380;10.892;2023-04-23T08:25:04;8.47;;;4.80;;
33740;SDS011;20065;48.380;10.892;2023-04-23T08:27:51;5.53;;;3.90;;
33740;SDS011;20065;48.380;10.892;2023-04-23T08:30:37;5.73;;;3.63;;
33740;SDS011;20065;48.380;10.892;2023-04-23T08:33:23;6.87;;;4.37;;
33740;SDS011;20065;48.380;10.892;2023-04-23T08:36:10;6.53;;;4.57;;
33740;SDS011;20065;48.380;10.892;2023-04-23T08:38:56;7.27;;;4.50;;
33740;SDS011;20065;48.380;10.892;2023-04-23T08:41:42;9.03;;;4.50;;
33740;SDS011;20065;48.380;10.892;2023-04-23T08:44:31;7.53;;;5.10;;
33740;SDS011;20065;48.380;10.892;2023-04-23T08:47:20;7.00;;;5.10;;
33740;SDS011;20065;48.380;10.892;2023-04-23T08:50:14;9.07;;;4.83;;
33740;SDS011;20065;48.380;10.892;2023-04-23T08:53:03;6.40;;;3.70;;
33740;SDS011;20065;48.380;10.892;2023-04-23T08:55:51;6.57;;;3.67;;
33740;SDS011;20065;48.380;10.892;2023-04-23T08:58:39;5.30;;;3.80;;
33740;SDS011;20065;48.380;10.892;2023-04-23T09:01:39;8.93;;;4.40;;
33740;SDS011;20065;48.380;10.892;2023-04-23T09:04:36;5.47;;;4.07;;
33740;SDS011;20065;48.380;10.892;2023-04-23T09:07:23;6.07;;;3.60;;
33740;SDS011;20065;48.380;10.892;2023-04-23T09:10:19;6.13;;;3.30;;
33740;SDS011;20065;48.380;10.892;2023-04-23T09:13:13;5.60;;;3.67;;
33740;SDS011;20065;48.380;10.892;2023-04-23T09:18:57;5.03;;;3.20;;
33740;SDS011;20065;48.380;10.892;2023-04-23T09:21:44;6.50;;;4.00;;
33740;SDS011;20065;48.380;10.892;2023-04-23T09:24:31;7.67;;;3.40;;
33740;SDS011;20065;48.380;10.892;2023-04-23T09:27:22;5.97;;;3.90;;
33740;SDS011;20065;48.380;10.892;2023-04-23T09:30:11;5.83;;;2.63;;
33740;SDS011;20065;48.380;10.892;2023-04-23T09:32:58;4.60;;;2.43;;
33740;SDS011;20065;48.380;10.892;2023-04-23T09:35:44;4.50;;;2.60;;
33740;SDS011;20065;48.380;10.892;2023-04-23T09:38:32;7.07;;;2.40;;
33740;SDS011;20065;48.380;10.892;2023-04-23T09:41:28;3.30;;;1.90;;
33740;SDS011;20065;48.380;10.892;2023-04-23T09:44:19;4.20;;;2.30;;
33740;SDS011;20065;48.380;10.892;2023-04-23T09:47:13;4.90;;;2.20;;
33740;SDS011;20065;48.380;10.892;2023-04-23T09:50:00;4.50;;;2.10;;
33740;SDS011;20065;48.380;10.892;2023-04-23T09:52:52;3.57;;;2.13;;
33740;SDS011;20065;48.380;10.892;2023-04-23T09:55:42;4.10;;;2.10;;
33740;SDS011;20065;48.380;10.892;2023-04-23T09:58:29;4.50;;;2.63;;
33740;SDS011;20065;48.380;10.892;2023-04-23T10:01:16;3.30;;;1.83;;
33740;SDS011;20065;48.380;10.892;2023-04-23T10:04:05;4.43;;;2.63;;
33740;SDS011;20065;48.380;10.892;2023-04-23T10:06:55;4.53;;;2.10;;
33740;SDS011;20065;48.380;10.892;2023-04-23T10:09:43;3.70;;;2.23;;
33740;SDS011;20065;48.380;10.892;2023-04-23T10:12:36;4.80;;;2.00;;
33740;SDS011;20065;48.380;10.892;2023-04-23T10:15:25;3.50;;;1.90;;
33740;SDS011;20065;48.380;10.892;2023-04-23T10:18:13;3.40;;;1.73;;
33740;SDS011;20065;48.380;10.892;2023-04-23T10:20:59;5.50;;;2.73;;
33740;SDS011;20065;48.380;10.892;2023-04-23T10:23:49;3.30;;;1.50;;
33740;SDS011;20065;48.380;10.892;2023-04-23T10:26:37;2.90;;;1.60;;
33740;SDS011;20065;48.380;10.892;2023-04-23T10:29:29;3.00;;;1.60;;
33740;SDS011;20065;48.380;10.892;2023-04-23T10:32:17;3.77;;;1.90;;
33740;SDS011;20065;48.380;10.892;2023-04-23T10:35:06;3.50;;;1.53;;
33740;SDS011;20065;48.380;10.892;2023-04-23T10:37:53;3.80;;;1.70;;
33740;SDS011;20065;48.380;10.892;2023-04-23T10:40:40;2.80;;;1.50;;
33740;SDS011;20065;48.380;10.892;2023-04-23T10:43:32;5.60;;;2.00;;
33740;SDS011;20065;48.380;10.892;2023-04-23T10:46:30;3.03;;;1.40;;
33740;SDS011;20065;48.380;10.892;2023-04-23T10:49:21;5.73;;;1.80;;
33740;SDS011;20065;48.380;10.892;2023-04-23T10:52:14;3.23;;;1.33;;
33740;SDS011;20065;48.380;10.892;2023-04-23T10:55:01;2.97;;;1.70;;
33740;SDS011;20065;48.380;10.892;2023-04-23T10:58:04;3.57;;;1.87;;
33740;SDS011;20065;48.380;10.892;2023-04-23T11:00:52;3.43;;;1.40;;
33740;SDS011;20065;48.380;10.892;2023-04-23T11:03:46;3.40;;;1.50;;
33740;SDS011;20065;48.380;10.892;2023-04-23T11:09:46;3.70;;;1.60;;
33740;SDS011;20065;48.380;10.892;2023-04-23T11:12:33;2.87;;;1.33;;
33740;SDS011;20065;48.380;10.892;2023-04-23T11:15:20;3.00;;;1.70;;
33740;SDS011;20065;48.380;10.892;2023-04-23T11:18:06;3.80;;;1.50;;
33740;SDS011;20065;48.380;10.892;2023-04-23T11:20:55;3.10;;;1.70;;
33740;SDS011;20065;48.380;10.892;2023-04-23T11:23:41;2.80;;;1.10;;
33740;SDS011;20065;48.380;10.892;2023-04-23T11:26:31;3.60;;;1.83;;
33740;SDS011;20065;48.380;10.892;2023-04-23T11:29:33;3.10;;;1.40;;
33740;SDS011;20065;48.380;10.892;2023-04-23T11:32:22;2.47;;;1.30;;
33740;SDS011;20065;48.380;10.892;2023-04-23T11:35:08;2.70;;;1.27;;
33740;SDS011;20065;48.380;10.892;2023-04-23T11:38:09;2.90;;;1.30;;
33740;SDS011;20065;48.380;10.892;2023-04-23T11:41:02;3.77;;;1.20;;
33740;SDS011;20065;48.380;10.892;2023-04-23T11:43:54;3.17;;;1.57;;
33740;SDS011;20065;48.380;10.892;2023-04-23T11:46:45;2.70;;;1.40;;
33740;SDS011;20065;48.380;10.892;2023-04-23T11:49:35;2.70;;;1.40;;
33740;SDS011;20065;48.380;10.892;2023-04-23T11:52:22;2.83;;;1.30;;
33740;SDS011;20065;48.380;10.892;2023-04-23T11:55:09;3.10;;;1.37;;
33740;SDS011;20065;48.380;10.892;2023-04-23T11:57:55;3.03;;;1.30;;
33740;SDS011;20065;48.380;10.892;2023-04-23T12:00:42;3.73;;;1.50;;
33740;SDS011;20065;48.380;10.892;2023-04-23T12:03:28;3.30;;;1.33;;
33740;SDS011;20065;48.380;10.892;2023-04-23T12:06:16;3.53;;;1.40;;
33740;SDS011;20065;48.380;10.892;2023-04-23T12:09:06;3.80;;;1.50;;
33740;SDS011;20065;48.380;10.892;2023-04-23T12:11:52;4.97;;;1.50;;
33740;SDS011;20065;48.380;10.892;2023-04-23T12:14:40;4.03;;;1.40;;
33740;SDS011;20065;48.380;10.892;2023-04-23T12:17:26;2.80;;;1.30;;
33740;SDS011;20065;48.380;10.892;2023-04-23T12:20:19;3.13;;;1.73;;
33740;SDS011;20065;48.380;10.892;2023-04-23T12:23:06;3.60;;;1.90;;
33740;SDS011;20065;48.380;10.892;2023-04-23T12:25:55;4.33;;;1.53;;
33740;SDS011;20065;48.380;10.892;2023-04-23T12:28:51;7.03;;;1.53;;
33740;SDS011;20065;48.380;10.892;2023-04-23T12:31:39;3.73;;;2.07;;
33740;SDS011;20065;48.380;10.892;2023-04-23T12:34:27;3.40;;;1.80;;
33740;SDS011;20065;48.380;10.892;2023-04-23T12:37:13;3.10;;;1.70;;
33740;SDS011;20065;48.380;10.892;2023-04-23T12:40:02;3.03;;;1.50;;
33740;SDS011;20065;48.380;10.892;2023-04-23T12:42:51;4.87;;;1.77;;
33740;SDS011;20065;48.380;10.892;2023-04-23T12:45:37;3.30;;;1.93;;
33740;SDS011;20065;48.380;10.892;2023-04-23T12:48:25;3.77;;;1.90;;
33740;SDS011;20065;48.380;10.892;2023-04-23T12:51:11;3.70;;;1.70;;
33740;SDS011;20065;48.380;10.892;2023-04-23T12:53:58;2.70;;;1.50;;
33740;SDS011;20065;48.380;10.892;2023-04-23T12:56:55;2.97;;;1.60;;
33740;SDS011;20065;48.380;10.892;2023-04-23T13:00:11;2.83;;;1.50;;
33740;SDS011;20065;48.380;10.892;2023-04-23T13:02:58;3.30;;;1.70;;
33740;SDS011;20065;48.380;10.892;2023-04-23T13:05:44;3.83;;;1.67;;
33740;SDS011;20065;48.380;10.892;2023-04-23T13:08:33;3.20;;;1.73;;
33740;SDS011;20065;48.380;10.892;2023-04-23T13:11:20;3.03;;;1.60;;
33740;SDS011;20065;48.380;10.892;2023-04-23T13:14:07;3.10;;;1.80;;
33740;SDS011;20065;48.380;10.892;2023-04-23T13:16:57;3.13;;;1.57;;
33740;SDS011;20065;48.380;10.892;2023-04-23T13:19:43;3.07;;;1.60;;
33740;SDS011;20065;48.380;10.892;2023-04-23T13:22:39;3.60;;;1.63;;
33740;SDS011;20065;48.380;10.892;2023-04-23T13:25:48;3.50;;;1.50;;
33740;SDS011;20065;48.380;10.892;2023-04-23T13:28:34;4.87;;;1.40;;
33740;SDS011;20065;48.380;10.892;2023-04-23T13:31:21;4.03;;;1.80;;
33740;SDS011;20065;48.380;10.892;2023-04-23T13:34:08;4.10;;;2.03;;
33740;SDS011;20065;48.380;10.892;2023-04-23T13:36:58;4.73;;;1.80;;
33740;SDS011;20065;48.380;10.892;2023-04-23T13:39:55;2.97;;;1.70;;
33740;SDS011;20065;48.380;10.892;2023-04-23T13:42:43;4.10;;;1.97;;
33740;SDS011;20065;48.380;10.892;2023-04-23T13:45:38;4.00;;;2.03;;
33740;SDS011;20065;48.380;10.892;2023-04-23T13:48:26;3.93;;;1.87;;
33740;SDS011;20065;48.380;10.892;2023-04-23T13:51:16;3.33;;;1.80;;
33740;SDS011;20065;48.380;10.892;2023-04-23T13:54:02;3.23;;;1.53;;
33740;SDS011;20065;48.380;10.892;2023-04-23T13:56:49;6.97;;;2.43;;
33740;SDS011;20065;48.380;10.892;2023-04-23T13:59:35;4.27;;;2.03;;
33740;SDS011;20065;48.380;10.892;2023-04-23T14:02:22;3.30;;;1.70;;
33740;SDS011;20065;48.380;10.892;2023-04-23T14:05:25;3.70;;;1.77;;
33740;SDS011;20065;48.380;10.892;2023-04-23T14:08:23;4.40;;;2.03;;
33740;SDS011;20065;48.380;10.892;2023-04-23T14:11:10;5.20;;;1.53;;
33740;SDS011;20065;48.380;10.892;2023-04-23T14:13:56;2.87;;;1.70;;
33740;SDS011;20065;48.380;10.892;2023-04-23T14:16:44;4.60;;;2.10;;
33740;SDS011;20065;48.380;10.892;2023-04-23T14:19:31;3.93;;;2.07;;
33740;SDS011;20065;48.380;10.892;2023-04-23T14:22:20;3.27;;;1.83;;
33740;SDS011;20065;48.380;10.892;2023-04-23T14:25:23;3.93;;;1.60;;
33740;SDS011;20065;48.380;10.892;2023-04-23T14:28:26;3.43;;;1.87;;
33740;SDS011;20065;48.380;10.892;2023-04-23T14:31:21;3.00;;;1.53;;
33740;SDS011;20065;48.380;10.892;2023-04-23T14:34:12;4.30;;;1.80;;
33740;SDS011;20065;48.380;10.892;2023-04-23T14:36:59;4.63;;;1.67;;
33740;SDS011;20065;48.380;10.892;2023-04-23T14:39:48;3.37;;;2.13;;
33740;SDS011;20065;48.380;10.892;2023-04-23T14:42:39;3.97;;;1.80;;
33740;SDS011;20065;48.380;10.892;2023-04-23T14:45:25;3.70;;;1.70;;
33740;SDS011;20065;48.380;10.892;2023-04-23T14:48:19;3.70;;;1.70;;
33740;SDS011;20065;48.380;10.892;2023-04-23T14:51:05;4.03;;;1.60;;
33740;SDS011;20065;48.380;10.892;2023-04-23T14:53:51;4.10;;;2.00;;
33740;SDS011;20065;48.380;10.892;2023-04-23T14:56:40;5.47;;;2.50;;
33740;SDS011;20065;48.380;10.892;2023-04-23T14:59:26;3.33;;;1.83;;
33740;SDS011;20065;48.380;10.892;2023-04-23T15:02:12;5.23;;;2.10;;
33740;SDS011;20065;48.380;10.892;2023-04-23T15:08:18;3.80;;;2.03;;
33740;SDS011;20065;48.380;10.892;2023-04-23T15:11:06;4.77;;;2.07;;
33740;SDS011;20065;48.380;10.892;2023-04-23T15:16:59;3.97;;;1.90;;
33740;SDS011;20065;48.380;10.892;2023-04-23T15:19:45;5.90;;;2.13;;
33740;SDS011;20065;48.380;10.892;2023-04-23T15:22:32;5.40;;;2.40;;
33740;SDS011;20065;48.380;10.892;2023-04-23T15:25:24;3.37;;;1.90;;
33740;SDS011;20065;48.380;10.892;2023-04-23T15:28:16;3.87;;;2.37;;
33740;SDS011;20065;48.380;10.892;2023-04-23T15:31:06;4.20;;;2.23;;
33740;SDS011;20065;48.380;10.892;2023-04-23T15:33:55;4.07;;;2.60;;
33740;SDS011;20065;48.380;10.892;2023-04-23T15:36:43;4.47;;;2.80;;
33740;SDS011;20065;48.380;10.892;2023-04-23T15:39:29;4.50;;;2.20;;
33740;SDS011;20065;48.380;10.892;2023-04-23T15:42:15;4.63;;;2.40;;
33740;SDS011;20065;48.380;10.892;2023-04-23T15:45:03;5.40;;;2.23;;
33740;SDS011;20065;48.380;10.892;2023-04-23T15:47:53;6.83;;;2.47;;
33740;SDS011;20065;48.380;10.892;2023-04-23T15:50:42;3.53;;;2.37;;
33740;SDS011;20065;48.380;10.892;2023-04-23T15:53:28;4.80;;;2.40;;
33740;SDS011;20065;48.380;10.892;2023-04-23T15:56:15;4.60;;;2.10;;
33740;SDS011;20065;48.380;10.892;2023-04-23T15:59:01;3.97;;;2.17;;
33740;SDS011;20065;48.380;10.892;2023-04-23T16:01:51;4.47;;;2.40;;
33740;SDS011;20065;48.380;10.892;2023-04-23T16:04:37;4.90;;;2.20;;
33740;SDS011;20065;48.380;10.892;2023-04-23T16:07:24;4.10;;;2.40;;
33740;SDS011;20065;48.380;10.892;2023-04-23T16:10:11;3.53;;;2.13;;
33740;SDS011;20065;48.380;10.892;2023-04-23T16:12:57;3.73;;;2.20;;
33740;SDS011;20065;48.380;10.892;2023-04-23T16:15:43;5.03;;;3.77;;
33740;SDS011;20065;48.380;10.892;2023-04-23T16:18:33;6.90;;;3.30;;
33740;SDS011;20065;48.380;10.892;2023-04-23T16:21:19;3.53;;;2.10;;
33740;SDS011;20065;48.380;10.892;2023-04-23T16:24:06;4.80;;;2.57;;
33740;SDS011;20065;48.380;10.892;2023-04-23T16:26:53;3.90;;;2.60;;
33740;SDS011;20065;48.380;10.892;2023-04-23T16:29:55;4.33;;;2.50;;
33740;SDS011;20065;48.380;10.892;2023-04-23T16:32:43;5.40;;;2.60;;
33740;SDS011;20065;48.380;10.892;2023-04-23T16:35:30;3.80;;;2.30;;
33740;SDS011;20065;48.380;10.892;2023-04-23T16:38:17;6.10;;;3.43;;
33740;SDS011;20065;48.380;10.892;2023-04-23T16:41:03;4.77;;;2.93;;
33740;SDS011;20065;48.380;10.892;2023-04-23T16:43:49;6.03;;;3.43;;
33740;SDS011;20065;48.380;10.892;2023-04-23T16:46:36;4.30;;;2.70;;
33740;SDS011;20065;48.380;10.892;2023-04-23T16:49:22;4.67;;;2.90;;